sensor_id;sensor_type;location;lat;lon;timestamp;P1;durP1;ratioP1;P2;durP2;ratioP2
35056;SDS011;21241;51.828;19.574;2023-02-28T00:01:32;10.50;;;9.50;;
35056;SDS011;21241;51.828;19.574;2023-02-28T00:04:00;9.40;;;8.60;;
35056;SDS011;21241;51.828;19.574;2023-02-28T00:06:28;13.10;;;12.00;;
35056;SDS011;21241;51.828;19.574;2023-02-28T00:08:56;15.30;;;13.70;;
35056;SDS011;21241;51.828;19.574;2023-02-28T00:11:23;13.80;;;12.50;;
35056;SDS011;21241;51.828;19.574;2023-02-28T00:13:51;11.70;;;10.80;;
35056;SDS011;21241;51.828;19.574;2023-02-28T00:16:20;11.70;;;10.70;;
35056;SDS011;21241;51.828;19.574;2023-02-28T00:18:49;12.70;;;11.50;;
35056;SDS011;21241;51.828;19.574;2023-02-28T00:21:17;12.20;;;11.00;;
35056;SDS011;21241;51.828;19.574;2023-02-28T00:23:46;12.60;;;11.60;;
35056;SDS011;21241;51.828;19.574;2023-02-28T00:26:14;12.40;;;11.40;;
35056;SDS011;21241;51.828;19.574;2023-02-28T00:28:42;12.90;;;11.70;;
35056;SDS011;21241;51.828;19.574;2023-02-28T00:31:10;14.40;;;13.00;;
35056;SDS011;21241;51.828;19.574;2023-02-28T00:33:38;11.80;;;10.70;;
35056;SDS011;21241;51.828;19.574;2023-02-28T00:36:07;10.40;;;9.50;;
35056;SDS011;21241;51.828;19.574;2023-02-28T00:38:37;10.90;;;9.90;;
35056;SDS011;21241;51.828;19.574;2023-02-28T00:41:06;11.50;;;10.40;;
35056;SDS011;21241;51.828;19.574;2023-02-28T00:43:35;9.60;;;8.80;;
35056;SDS011;21241;51.828;19.574;2023-02-28T00:46:06;10.40;;;9.50;;
35056;SDS011;21241;51.828;19.574;2023-02-28T00:48:34;9.20;;;8.40;;
35056;SDS011;21241;51.828;19.574;2023-02-28T00:51:03;9.90;;;9.00;;
35056;SDS011;21241;51.828;19.574;2023-02-28T00:53:31;8.90;;;8.10;;
35056;SDS011;21241;51.828;19.574;2023-02-28T00:56:02;8.90;;;8.20;;
35056;SDS011;21241;51.828;19.574;2023-02-28T00:58:31;8.60;;;7.90;;
35056;SDS011;21241;51.828;19.574;2023-02-28T01:00:59;8.20;;;7.50;;
35056;SDS011;21241;51.828;19.574;2023-02-28T01:03:27;8.80;;;8.00;;
35056;SDS011;21241;51.828;19.574;2023-02-28T01:05:55;8.10;;;7.40;;
35056;SDS011;21241;51.828;19.574;2023-02-28T01:08:22;9.00;;;8.20;;
35056;SDS011;21241;51.828;19.574;2023-02-28T01:10:51;8.10;;;7.40;;
35056;SDS011;21241;51.828;19.574;2023-02-28T01:13:19;9.20;;;8.40;;
35056;SDS011;21241;51.828;19.574;2023-02-28T01:15:51;9.50;;;8.80;;
35056;SDS011;21241;51.828;19.574;2023-02-28T01:18:21;8.80;;;8.20;;
35056;SDS011;21241;51.828;19.574;2023-02-28T01:20:49;9.00;;;8.30;;
35056;SDS011;21241;51.828;19.574;2023-02-28T01:23:19;9.00;;;8.30;;
35056;SDS011;21241;51.828;19.574;2023-02-28T01:25:50;9.10;;;8.40;;
35056;SDS011;21241;51.828;19.574;2023-02-28T01:28:18;8.70;;;8.00;;
35056;SDS011;21241;51.828;19.574;2023-02-28T01:30:49;9.40;;;8.70;;
35056;SDS011;21241;51.828;19.574;2023-02-28T01:33:18;9.60;;;8.80;;
35056;SDS011;21241;51.828;19.574;2023-02-28T01:35:46;10.80;;;9.90;;
35056;SDS011;21241;51.828;19.574;2023-02-28T01:38:14;10.70;;;9.80;;
35056;SDS011;21241;51.828;19.574;2023-02-28T01:40:49;11.20;;;10.30;;
35056;SDS011;21241;51.828;19.574;2023-02-28T01:45:55;10.30;;;9.50;;
35056;SDS011;21241;51.828;19.574;2023-02-28T01:48:29;11.00;;;10.10;;
35056;SDS011;21241;51.828;19.574;2023-02-28T01:51:00;11.60;;;10.70;;
35056;SDS011;21241;51.828;19.574;2023-02-28T01:53:35;11.60;;;10.60;;
35056;SDS011;21241;51.828;19.574;2023-02-28T01:56:06;11.10;;;10.30;;
35056;SDS011;21241;51.828;19.574;2023-02-28T01:58:35;13.10;;;12.00;;
35056;SDS011;21241;51.828;19.574;2023-02-28T02:01:04;12.10;;;11.00;;
35056;SDS011;21241;51.828;19.574;2023-02-28T02:03:33;11.40;;;10.50;;
35056;SDS011;21241;51.828;19.574;2023-02-28T02:06:02;12.10;;;11.10;;
35056;SDS011;21241;51.828;19.574;2023-02-28T02:08:30;12.00;;;11.10;;
35056;SDS011;21241;51.828;19.574;2023-02-28T02:10:59;15.10;;;13.80;;
35056;SDS011;21241;51.828;19.574;2023-02-28T02:13:30;14.40;;;13.20;;
35056;SDS011;21241;51.828;19.574;2023-02-28T02:18:51;14.30;;;13.20;;
35056;SDS011;21241;51.828;19.574;2023-02-28T02:21:35;13.30;;;12.30;;
35056;SDS011;21241;51.828;19.574;2023-02-28T02:27:08;11.70;;;10.80;;
35056;SDS011;21241;51.828;19.574;2023-02-28T02:33:06;11.80;;;10.90;;
35056;SDS011;21241;51.828;19.574;2023-02-28T02:35:52;12.70;;;11.60;;
35056;SDS011;21241;51.828;19.574;2023-02-28T02:43:37;13.50;;;12.30;;
35056;SDS011;21241;51.828;19.574;2023-02-28T02:46:13;12.80;;;11.80;;
35056;SDS011;21241;51.828;19.574;2023-02-28T02:48:45;11.90;;;10.90;;
35056;SDS011;21241;51.828;19.574;2023-02-28T02:51:14;12.20;;;11.20;;
35056;SDS011;21241;51.828;19.574;2023-02-28T02:54:28;12.40;;;11.40;;
35056;SDS011;21241;51.828;19.574;2023-02-28T02:56:36;13.50;;;12.40;;
35056;SDS011;21241;51.828;19.574;2023-02-28T02:59:08;13.80;;;12.70;;
35056;SDS011;21241;51.828;19.574;2023-02-28T03:01:37;13.30;;;12.20;;
35056;SDS011;21241;51.828;19.574;2023-02-28T03:04:10;12.70;;;11.70;;
35056;SDS011;21241;51.828;19.574;2023-02-28T03:06:44;16.30;;;15.00;;
35056;SDS011;21241;51.828;19.574;2023-02-28T03:09:11;16.80;;;15.40;;
35056;SDS011;21241;51.828;19.574;2023-02-28T03:11:39;15.70;;;14.50;;
35056;SDS011;21241;51.828;19.574;2023-02-28T03:23:04;16.50;;;15.10;;
35056;SDS011;21241;51.828;19.574;2023-02-28T03:26:02;16.70;;;15.30;;
35056;SDS011;21241;51.828;19.574;2023-02-28T03:31:30;17.10;;;15.60;;
35056;SDS011;21241;51.828;19.574;2023-02-28T03:34:14;16.90;;;15.50;;
35056;SDS011;21241;51.828;19.574;2023-02-28T03:36:47;15.80;;;14.50;;
35056;SDS011;21241;51.828;19.574;2023-02-28T03:39:18;16.20;;;14.90;;
35056;SDS011;21241;51.828;19.574;2023-02-28T03:42:08;14.70;;;13.40;;
35056;SDS011;21241;51.828;19.574;2023-02-28T03:44:40;15.80;;;14.50;;
35056;SDS011;21241;51.828;19.574;2023-02-28T03:47:12;17.00;;;15.60;;
35056;SDS011;21241;51.828;19.574;2023-02-28T03:49:45;18.40;;;16.80;;
35056;SDS011;21241;51.828;19.574;2023-02-28T03:52:16;18.60;;;17.10;;
35056;SDS011;21241;51.828;19.574;2023-02-28T03:54:47;17.40;;;16.00;;
35056;SDS011;21241;51.828;19.574;2023-02-28T03:57:27;17.90;;;16.40;;
35056;SDS011;21241;51.828;19.574;2023-02-28T04:00:16;19.70;;;18.10;;
35056;SDS011;21241;51.828;19.574;2023-02-28T04:02:47;17.80;;;16.40;;
35056;SDS011;21241;51.828;19.574;2023-02-28T04:05:20;18.00;;;16.50;;
35056;SDS011;21241;51.828;19.574;2023-02-28T04:07:48;17.10;;;15.80;;
35056;SDS011;21241;51.828;19.574;2023-02-28T04:10:16;17.70;;;16.30;;
35056;SDS011;21241;51.828;19.574;2023-02-28T04:12:44;17.50;;;16.00;;
35056;SDS011;21241;51.828;19.574;2023-02-28T04:15:12;18.40;;;16.90;;
35056;SDS011;21241;51.828;19.574;2023-02-28T04:17:39;22.40;;;20.20;;
35056;SDS011;21241;51.828;19.574;2023-02-28T04:20:07;24.00;;;21.90;;
35056;SDS011;21241;51.828;19.574;2023-02-28T04:22:37;23.10;;;21.00;;
35056;SDS011;21241;51.828;19.574;2023-02-28T04:25:05;21.30;;;19.50;;
35056;SDS011;21241;51.828;19.574;2023-02-28T04:27:33;21.80;;;19.90;;
35056;SDS011;21241;51.828;19.574;2023-02-28T04:30:01;21.90;;;19.90;;
35056;SDS011;21241;51.828;19.574;2023-02-28T04:32:29;20.70;;;18.90;;
35056;SDS011;21241;51.828;19.574;2023-02-28T04:34:57;20.80;;;18.90;;
35056;SDS011;21241;51.828;19.574;2023-02-28T04:37:25;20.60;;;18.60;;
35056;SDS011;21241;51.828;19.574;2023-02-28T04:39:56;20.80;;;18.90;;
35056;SDS011;21241;51.828;19.574;2023-02-28T04:42:23;21.10;;;19.10;;
35056;SDS011;21241;51.828;19.574;2023-02-28T04:44:51;23.60;;;21.40;;
35056;SDS011;21241;51.828;19.574;2023-02-28T04:47:18;22.60;;;20.60;;
35056;SDS011;21241;51.828;19.574;2023-02-28T04:49:46;23.50;;;21.40;;
35056;SDS011;21241;51.828;19.574;2023-02-28T04:52:14;21.60;;;19.70;;
35056;SDS011;21241;51.828;19.574;2023-02-28T04:54:41;23.00;;;20.80;;
35056;SDS011;21241;51.828;19.574;2023-02-28T04:57:09;21.90;;;20.00;;
35056;SDS011;21241;51.828;19.574;2023-02-28T04:59:37;20.90;;;19.10;;
35056;SDS011;21241;51.828;19.574;2023-02-28T05:02:04;22.60;;;20.60;;
35056;SDS011;21241;51.828;19.574;2023-02-28T05:04:34;22.00;;;20.10;;
35056;SDS011;21241;51.828;19.574;2023-02-28T05:07:02;22.00;;;20.00;;
35056;SDS011;21241;51.828;19.574;2023-02-28T05:09:30;22.00;;;20.20;;
35056;SDS011;21241;51.828;19.574;2023-02-28T05:12:00;23.00;;;20.90;;
35056;SDS011;21241;51.828;19.574;2023-02-28T05:14:28;28.20;;;25.50;;
35056;SDS011;21241;51.828;19.574;2023-02-28T05:16:55;30.20;;;27.50;;
35056;SDS011;21241;51.828;19.574;2023-02-28T05:19:23;30.60;;;27.90;;
35056;SDS011;21241;51.828;19.574;2023-02-28T05:21:51;34.20;;;31.20;;
35056;SDS011;21241;51.828;19.574;2023-02-28T05:24:21;31.00;;;28.30;;
35056;SDS011;21241;51.828;19.574;2023-02-28T05:26:52;31.10;;;28.40;;
35056;SDS011;21241;51.828;19.574;2023-02-28T05:29:20;31.80;;;29.00;;
35056;SDS011;21241;51.828;19.574;2023-02-28T05:31:48;29.70;;;27.00;;
35056;SDS011;21241;51.828;19.574;2023-02-28T05:34:17;29.70;;;27.10;;
35056;SDS011;21241;51.828;19.574;2023-02-28T05:36:44;24.90;;;22.80;;
35056;SDS011;21241;51.828;19.574;2023-02-28T05:39:12;22.70;;;20.60;;
35056;SDS011;21241;51.828;19.574;2023-02-28T05:41:41;23.50;;;21.40;;
35056;SDS011;21241;51.828;19.574;2023-02-28T05:44:09;26.00;;;23.60;;
35056;SDS011;21241;51.828;19.574;2023-02-28T05:46:37;38.60;;;31.00;;
35056;SDS011;21241;51.828;19.574;2023-02-28T05:49:05;61.80;;;43.00;;
35056;SDS011;21241;51.828;19.574;2023-02-28T05:51:33;39.40;;;32.50;;
35056;SDS011;21241;51.828;19.574;2023-02-28T05:54:03;25.80;;;23.30;;
35056;SDS011;21241;51.828;19.574;2023-02-28T05:56:31;33.40;;;28.60;;
35056;SDS011;21241;51.828;19.574;2023-02-28T05:58:59;38.30;;;30.70;;
35056;SDS011;21241;51.828;19.574;2023-02-28T06:01:43;46.50;;;35.30;;
35056;SDS011;21241;51.828;19.574;2023-02-28T06:04:16;56.60;;;37.90;;
35056;SDS011;21241;51.828;19.574;2023-02-28T06:06:58;47.20;;;34.80;;
35056;SDS011;21241;51.828;19.574;2023-02-28T06:09:25;42.90;;;33.40;;
35056;SDS011;21241;51.828;19.574;2023-02-28T06:11:53;40.40;;;36.00;;
35056;SDS011;21241;51.828;19.574;2023-02-28T06:14:21;36.30;;;32.30;;
35056;SDS011;21241;51.828;19.574;2023-02-28T06:16:49;36.20;;;28.60;;
35056;SDS011;21241;51.828;19.574;2023-02-28T06:19:16;32.10;;;27.50;;
35056;SDS011;21241;51.828;19.574;2023-02-28T06:21:44;30.90;;;26.80;;
35056;SDS011;21241;51.828;19.574;2023-02-28T06:24:12;28.40;;;25.80;;
35056;SDS011;21241;51.828;19.574;2023-02-28T06:26:40;28.80;;;26.20;;
35056;SDS011;21241;51.828;19.574;2023-02-28T06:29:08;28.70;;;25.50;;
35056;SDS011;21241;51.828;19.574;2023-02-28T06:31:35;27.90;;;24.90;;
35056;SDS011;21241;51.828;19.574;2023-02-28T06:34:04;28.70;;;25.60;;
35056;SDS011;21241;51.828;19.574;2023-02-28T06:36:32;26.00;;;23.30;;
35056;SDS011;21241;51.828;19.574;2023-02-28T06:38:59;26.90;;;24.10;;
35056;SDS011;21241;51.828;19.574;2023-02-28T06:41:27;23.20;;;20.90;;
35056;SDS011;21241;51.828;19.574;2023-02-28T06:43:56;25.50;;;23.10;;
35056;SDS011;21241;51.828;19.574;2023-02-28T06:46:24;23.60;;;21.60;;
35056;SDS011;21241;51.828;19.574;2023-02-28T06:48:52;20.10;;;18.50;;
35056;SDS011;21241;51.828;19.574;2023-02-28T06:51:20;19.70;;;18.10;;
35056;SDS011;21241;51.828;19.574;2023-02-28T06:53:50;21.90;;;20.10;;
35056;SDS011;21241;51.828;19.574;2023-02-28T06:56:18;19.50;;;17.90;;
35056;SDS011;21241;51.828;19.574;2023-02-28T06:58:48;18.90;;;17.40;;
35056;SDS011;21241;51.828;19.574;2023-02-28T07:01:17;20.00;;;18.40;;
35056;SDS011;21241;51.828;19.574;2023-02-28T07:03:45;20.70;;;19.00;;
35056;SDS011;21241;51.828;19.574;2023-02-28T07:06:13;23.80;;;21.50;;
35056;SDS011;21241;51.828;19.574;2023-02-28T07:08:41;20.80;;;19.20;;
35056;SDS011;21241;51.828;19.574;2023-02-28T07:11:09;20.20;;;18.50;;
35056;SDS011;21241;51.828;19.574;2023-02-28T07:13:36;18.70;;;17.20;;
35056;SDS011;21241;51.828;19.574;2023-02-28T07:16:05;18.40;;;16.90;;
35056;SDS011;21241;51.828;19.574;2023-02-28T07:18:35;18.60;;;17.00;;
35056;SDS011;21241;51.828;19.574;2023-02-28T07:21:04;17.90;;;16.40;;
35056;SDS011;21241;51.828;19.574;2023-02-28T07:23:33;15.70;;;14.30;;
35056;SDS011;21241;51.828;19.574;2023-02-28T07:26:01;17.50;;;16.00;;
35056;SDS011;21241;51.828;19.574;2023-02-28T07:28:29;15.80;;;14.40;;
35056;SDS011;21241;51.828;19.574;2023-02-28T07:31:02;17.30;;;15.80;;
35056;SDS011;21241;51.828;19.574;2023-02-28T07:33:31;15.00;;;13.60;;
35056;SDS011;21241;51.828;19.574;2023-02-28T07:36:02;15.40;;;14.10;;
35056;SDS011;21241;51.828;19.574;2023-02-28T07:38:35;14.70;;;13.40;;
35056;SDS011;21241;51.828;19.574;2023-02-28T07:41:04;15.00;;;13.80;;
35056;SDS011;21241;51.828;19.574;2023-02-28T07:43:32;16.40;;;14.90;;
35056;SDS011;21241;51.828;19.574;2023-02-28T07:48:31;14.60;;;13.30;;
35056;SDS011;21241;51.828;19.574;2023-02-28T07:50:59;14.50;;;13.20;;
35056;SDS011;21241;51.828;19.574;2023-02-28T07:53:27;13.80;;;12.60;;
35056;SDS011;21241;51.828;19.574;2023-02-28T07:55:56;12.80;;;11.70;;
35056;SDS011;21241;51.828;19.574;2023-02-28T07:58:24;12.50;;;11.40;;
35056;SDS011;21241;51.828;19.574;2023-02-28T08:00:52;12.10;;;10.90;;
35056;SDS011;21241;51.828;19.574;2023-02-28T08:03:20;11.60;;;10.60;;
35056;SDS011;21241;51.828;19.574;2023-02-28T08:05:49;10.20;;;9.40;;
35056;SDS011;21241;51.828;19.574;2023-02-28T08:08:17;10.70;;;9.80;;
35056;SDS011;21241;51.828;19.574;2023-02-28T08:10:45;11.10;;;10.10;;
35056;SDS011;21241;51.828;19.574;2023-02-28T08:13:12;11.40;;;10.40;;
35056;SDS011;21241;51.828;19.574;2023-02-28T08:15:40;11.40;;;10.40;;
35056;SDS011;21241;51.828;19.574;2023-02-28T08:18:10;11.10;;;10.10;;
35056;SDS011;21241;51.828;19.574;2023-02-28T08:20:37;12.00;;;11.00;;
35056;SDS011;21241;51.828;19.574;2023-02-28T08:23:05;11.80;;;10.90;;
35056;SDS011;21241;51.828;19.574;2023-02-28T08:25:33;11.50;;;10.50;;
35056;SDS011;21241;51.828;19.574;2023-02-28T08:28:00;11.90;;;10.80;;
35056;SDS011;21241;51.828;19.574;2023-02-28T08:30:28;12.10;;;11.10;;
35056;SDS011;21241;51.828;19.574;2023-02-28T08:32:56;11.10;;;10.30;;
35056;SDS011;21241;51.828;19.574;2023-02-28T08:35:23;11.50;;;10.50;;
35056;SDS011;21241;51.828;19.574;2023-02-28T08:37:51;11.20;;;10.10;;
35056;SDS011;21241;51.828;19.574;2023-02-28T08:40:19;9.60;;;8.90;;
35056;SDS011;21241;51.828;19.574;2023-02-28T08:42:47;10.00;;;9.20;;
35056;SDS011;21241;51.828;19.574;2023-02-28T08:45:15;10.30;;;9.50;;
35056;SDS011;21241;51.828;19.574;2023-02-28T08:47:42;9.80;;;9.00;;
35056;SDS011;21241;51.828;19.574;2023-02-28T08:50:10;9.90;;;9.10;;
35056;SDS011;21241;51.828;19.574;2023-02-28T08:52:38;10.30;;;9.50;;
35056;SDS011;21241;51.828;19.574;2023-02-28T08:55:05;9.80;;;9.00;;
35056;SDS011;21241;51.828;19.574;2023-02-28T08:57:33;9.40;;;8.50;;
35056;SDS011;21241;51.828;19.574;2023-02-28T09:00:02;8.50;;;7.70;;
35056;SDS011;21241;51.828;19.574;2023-02-28T09:02:31;10.80;;;9.90;;
35056;SDS011;21241;51.828;19.574;2023-02-28T09:04:59;10.60;;;9.70;;
35056;SDS011;21241;51.828;19.574;2023-02-28T09:07:26;10.30;;;9.50;;
35056;SDS011;21241;51.828;19.574;2023-02-28T09:09:54;11.80;;;10.70;;
35056;SDS011;21241;51.828;19.574;2023-02-28T09:12:22;10.70;;;9.80;;
35056;SDS011;21241;51.828;19.574;2023-02-28T09:14:51;9.90;;;9.10;;
35056;SDS011;21241;51.828;19.574;2023-02-28T09:17:20;10.40;;;9.50;;
35056;SDS011;21241;51.828;19.574;2023-02-28T09:19:48;11.00;;;10.00;;
35056;SDS011;21241;51.828;19.574;2023-02-28T09:22:16;11.90;;;10.90;;
35056;SDS011;21241;51.828;19.574;2023-02-28T09:24:44;11.80;;;10.80;;
35056;SDS011;21241;51.828;19.574;2023-02-28T09:27:12;11.10;;;10.20;;
35056;SDS011;21241;51.828;19.574;2023-02-28T09:29:40;11.10;;;10.30;;
35056;SDS011;21241;51.828;19.574;2023-02-28T09:32:07;10.70;;;9.80;;
35056;SDS011;21241;51.828;19.574;2023-02-28T09:34:35;11.40;;;10.40;;
35056;SDS011;21241;51.828;19.574;2023-02-28T09:37:04;10.40;;;9.60;;
35056;SDS011;21241;51.828;19.574;2023-02-28T09:39:32;10.90;;;10.00;;
35056;SDS011;21241;51.828;19.574;2023-02-28T09:41:59;9.70;;;8.90;;
35056;SDS011;21241;51.828;19.574;2023-02-28T09:44:30;10.80;;;9.80;;
35056;SDS011;21241;51.828;19.574;2023-02-28T09:47:05;11.10;;;10.20;;
35056;SDS011;21241;51.828;19.574;2023-02-28T09:49:37;10.60;;;9.70;;
35056;SDS011;21241;51.828;19.574;2023-02-28T09:52:18;10.60;;;9.60;;
35056;SDS011;21241;51.828;19.574;2023-02-28T09:54:47;10.70;;;9.80;;
35056;SDS011;21241;51.828;19.574;2023-02-28T09:57:31;10.00;;;9.20;;
35056;SDS011;21241;51.828;19.574;2023-02-28T10:03:04;9.30;;;8.50;;
35056;SDS011;21241;51.828;19.574;2023-02-28T10:05:40;10.10;;;9.20;;
35056;SDS011;21241;51.828;19.574;2023-02-28T10:08:13;8.60;;;7.80;;
35056;SDS011;21241;51.828;19.574;2023-02-28T10:10:46;9.40;;;8.50;;
35056;SDS011;21241;51.828;19.574;2023-02-28T10:13:27;8.80;;;8.10;;
35056;SDS011;21241;51.828;19.574;2023-02-28T10:16:02;9.30;;;8.60;;
35056;SDS011;21241;51.828;19.574;2023-02-28T10:18:37;10.00;;;9.20;;
35056;SDS011;21241;51.828;19.574;2023-02-28T10:27:17;8.90;;;8.30;;
35056;SDS011;21241;51.828;19.574;2023-02-28T10:29:47;9.70;;;8.80;;
35056;SDS011;21241;51.828;19.574;2023-02-28T10:32:18;9.30;;;8.60;;
35056;SDS011;21241;51.828;19.574;2023-02-28T10:35:00;8.40;;;7.80;;
35056;SDS011;21241;51.828;19.574;2023-02-28T10:37:37;8.20;;;7.50;;
35056;SDS011;21241;51.828;19.574;2023-02-28T10:40:07;9.30;;;8.50;;
35056;SDS011;21241;51.828;19.574;2023-02-28T10:42:55;9.60;;;8.80;;
35056;SDS011;21241;51.828;19.574;2023-02-28T10:45:24;9.70;;;8.90;;
35056;SDS011;21241;51.828;19.574;2023-02-28T10:47:53;9.40;;;8.70;;
35056;SDS011;21241;51.828;19.574;2023-02-28T10:50:30;9.80;;;9.00;;
35056;SDS011;21241;51.828;19.574;2023-02-28T10:53:06;9.80;;;9.10;;
35056;SDS011;21241;51.828;19.574;2023-02-28T10:55:37;10.10;;;9.30;;
35056;SDS011;21241;51.828;19.574;2023-02-28T10:58:20;9.60;;;8.80;;
35056;SDS011;21241;51.828;19.574;2023-02-28T11:00:49;9.80;;;8.90;;
35056;SDS011;21241;51.828;19.574;2023-02-28T11:03:28;10.20;;;9.30;;
35056;SDS011;21241;51.828;19.574;2023-02-28T11:06:03;10.00;;;9.20;;
35056;SDS011;21241;51.828;19.574;2023-02-28T11:08:39;10.70;;;9.70;;
35056;SDS011;21241;51.828;19.574;2023-02-28T11:11:12;9.40;;;8.70;;
35056;SDS011;21241;51.828;19.574;2023-02-28T11:13:40;9.70;;;8.90;;
35056;SDS011;21241;51.828;19.574;2023-02-28T11:16:10;10.10;;;9.30;;
35056;SDS011;21241;51.828;19.574;2023-02-28T11:18:52;9.70;;;8.90;;
35056;SDS011;21241;51.828;19.574;2023-02-28T11:21:25;9.50;;;8.70;;
35056;SDS011;21241;51.828;19.574;2023-02-28T11:24:00;9.40;;;8.60;;
35056;SDS011;21241;51.828;19.574;2023-02-28T11:26:51;10.40;;;9.50;;
35056;SDS011;21241;51.828;19.574;2023-02-28T11:29:20;10.10;;;9.20;;
35056;SDS011;21241;51.828;19.574;2023-02-28T11:32:04;10.30;;;9.50;;
35056;SDS011;21241;51.828;19.574;2023-02-28T11:34:36;10.40;;;9.50;;
35056;SDS011;21241;51.828;19.574;2023-02-28T11:37:05;10.60;;;9.70;;
35056;SDS011;21241;51.828;19.574;2023-02-28T11:39:46;10.70;;;9.90;;
35056;SDS011;21241;51.828;19.574;2023-02-28T11:48:26;11.40;;;10.40;;
35056;SDS011;21241;51.828;19.574;2023-02-28T11:51:09;10.10;;;9.30;;
35056;SDS011;21241;51.828;19.574;2023-02-28T11:53:50;10.60;;;9.70;;
35056;SDS011;21241;51.828;19.574;2023-02-28T12:01:43;10.70;;;9.80;;
35056;SDS011;21241;51.828;19.574;2023-02-28T12:04:36;11.80;;;11.00;;
35056;SDS011;21241;51.828;19.574;2023-02-28T12:15:39;10.80;;;9.90;;
35056;SDS011;21241;51.828;19.574;2023-02-28T12:26:57;9.70;;;9.00;;
35056;SDS011;21241;51.828;19.574;2023-02-28T12:29:30;10.20;;;9.40;;
35056;SDS011;21241;51.828;19.574;2023-02-28T12:32:09;9.80;;;9.00;;
35056;SDS011;21241;51.828;19.574;2023-02-28T12:34:47;9.90;;;9.20;;
35056;SDS011;21241;51.828;19.574;2023-02-28T12:37:19;9.30;;;8.60;;
35056;SDS011;21241;51.828;19.574;2023-02-28T12:39:54;9.50;;;8.80;;
35056;SDS011;21241;51.828;19.574;2023-02-28T12:42:27;9.30;;;8.60;;
35056;SDS011;21241;51.828;19.574;2023-02-28T12:47:52;9.40;;;8.70;;
35056;SDS011;21241;51.828;19.574;2023-02-28T12:50:24;9.90;;;9.20;;
35056;SDS011;21241;51.828;19.574;2023-02-28T12:52:59;11.40;;;10.50;;
35056;SDS011;21241;51.828;19.574;2023-02-28T12:58:39;10.90;;;10.10;;
35056;SDS011;21241;51.828;19.574;2023-02-28T13:07:31;11.30;;;10.40;;
35056;SDS011;21241;51.828;19.574;2023-02-28T13:10:06;11.60;;;10.60;;
35056;SDS011;21241;51.828;19.574;2023-02-28T13:12:35;11.20;;;10.40;;
35056;SDS011;21241;51.828;19.574;2023-02-28T13:15:17;11.50;;;10.70;;
35056;SDS011;21241;51.828;19.574;2023-02-28T13:17:52;10.20;;;9.40;;
35056;SDS011;21241;51.828;19.574;2023-02-28T13:20:23;10.90;;;10.00;;
35056;SDS011;21241;51.828;19.574;2023-02-28T13:22:53;11.00;;;9.90;;
35056;SDS011;21241;51.828;19.574;2023-02-28T13:27:50;10.90;;;10.00;;
35056;SDS011;21241;51.828;19.574;2023-02-28T13:33:28;11.20;;;10.30;;
35056;SDS011;21241;51.828;19.574;2023-02-28T13:36:40;11.00;;;10.10;;
35056;SDS011;21241;51.828;19.574;2023-02-28T13:38:51;11.40;;;10.50;;
35056;SDS011;21241;51.828;19.574;2023-02-28T13:44:20;11.50;;;10.60;;
35056;SDS011;21241;51.828;19.574;2023-02-28T13:54:33;12.60;;;11.50;;
35056;SDS011;21241;51.828;19.574;2023-02-28T14:05:26;11.90;;;11.00;;
35056;SDS011;21241;51.828;19.574;2023-02-28T14:07:57;11.80;;;10.80;;
35056;SDS011;21241;51.828;19.574;2023-02-28T14:10:34;11.20;;;10.40;;
35056;SDS011;21241;51.828;19.574;2023-02-28T14:15:56;11.20;;;10.30;;
35056;SDS011;21241;51.828;19.574;2023-02-28T14:23:50;12.50;;;11.50;;
35056;SDS011;21241;51.828;19.574;2023-02-28T14:26:41;13.70;;;12.60;;
35056;SDS011;21241;51.828;19.574;2023-02-28T14:29:21;15.40;;;14.10;;
35056;SDS011;21241;51.828;19.574;2023-02-28T14:32:01;13.60;;;12.50;;
35056;SDS011;21241;51.828;19.574;2023-02-28T14:37:30;15.30;;;14.10;;
35056;SDS011;21241;51.828;19.574;2023-02-28T14:40:01;14.30;;;13.20;;
35056;SDS011;21241;51.828;19.574;2023-02-28T14:42:32;13.60;;;12.50;;
35056;SDS011;21241;51.828;19.574;2023-02-28T14:45:02;14.00;;;12.80;;
35056;SDS011;21241;51.828;19.574;2023-02-28T14:47:31;13.40;;;12.30;;
35056;SDS011;21241;51.828;19.574;2023-02-28T14:49:59;13.70;;;12.60;;
35056;SDS011;21241;51.828;19.574;2023-02-28T14:52:29;12.90;;;11.80;;
35056;SDS011;21241;51.828;19.574;2023-02-28T14:55:06;12.90;;;11.90;;
35056;SDS011;21241;51.828;19.574;2023-02-28T14:57:40;14.00;;;12.90;;
35056;SDS011;21241;51.828;19.574;2023-02-28T15:00:29;14.00;;;12.80;;
35056;SDS011;21241;51.828;19.574;2023-02-28T15:02:58;13.80;;;12.70;;
35056;SDS011;21241;51.828;19.574;2023-02-28T15:05:29;13.20;;;12.10;;
35056;SDS011;21241;51.828;19.574;2023-02-28T15:08:01;14.90;;;13.70;;
35056;SDS011;21241;51.828;19.574;2023-02-28T15:10:49;15.00;;;13.70;;
35056;SDS011;21241;51.828;19.574;2023-02-28T15:13:19;15.10;;;13.90;;
35056;SDS011;21241;51.828;19.574;2023-02-28T15:15:49;14.30;;;13.10;;
35056;SDS011;21241;51.828;19.574;2023-02-28T15:18:32;15.40;;;14.20;;
35056;SDS011;21241;51.828;19.574;2023-02-28T15:21:06;15.50;;;14.20;;
35056;SDS011;21241;51.828;19.574;2023-02-28T15:23:35;16.00;;;14.70;;
35056;SDS011;21241;51.828;19.574;2023-02-28T15:26:03;14.80;;;13.60;;
35056;SDS011;21241;51.828;19.574;2023-02-28T15:28:32;15.30;;;14.00;;
35056;SDS011;21241;51.828;19.574;2023-02-28T15:31:01;16.90;;;15.50;;
35056;SDS011;21241;51.828;19.574;2023-02-28T15:33:32;16.60;;;15.20;;
35056;SDS011;21241;51.828;19.574;2023-02-28T15:36:04;15.90;;;14.60;;
35056;SDS011;21241;51.828;19.574;2023-02-28T15:38:41;16.30;;;14.90;;
35056;SDS011;21241;51.828;19.574;2023-02-28T15:41:21;15.00;;;13.80;;
35056;SDS011;21241;51.828;19.574;2023-02-28T15:47:21;15.80;;;14.50;;
35056;SDS011;21241;51.828;19.574;2023-02-28T15:52:22;17.30;;;15.80;;
35056;SDS011;21241;51.828;19.574;2023-02-28T15:55:07;18.50;;;16.90;;
35056;SDS011;21241;51.828;19.574;2023-02-28T15:57:56;18.10;;;16.60;;
35056;SDS011;21241;51.828;19.574;2023-02-28T16:00:27;18.50;;;16.90;;
35056;SDS011;21241;51.828;19.574;2023-02-28T16:02:56;19.20;;;17.60;;
35056;SDS011;21241;51.828;19.574;2023-02-28T16:05:25;21.30;;;19.50;;
35056;SDS011;21241;51.828;19.574;2023-02-28T16:08:14;23.80;;;21.60;;
35056;SDS011;21241;51.828;19.574;2023-02-28T16:10:42;28.80;;;25.90;;
35056;SDS011;21241;51.828;19.574;2023-02-28T16:13:11;30.70;;;27.50;;
35056;SDS011;21241;51.828;19.574;2023-02-28T16:15:41;33.10;;;29.90;;
35056;SDS011;21241;51.828;19.574;2023-02-28T16:18:11;33.20;;;29.90;;
35056;SDS011;21241;51.828;19.574;2023-02-28T16:20:39;29.50;;;26.80;;
35056;SDS011;21241;51.828;19.574;2023-02-28T16:23:07;30.30;;;27.60;;
35056;SDS011;21241;51.828;19.574;2023-02-28T16:25:37;29.40;;;26.70;;
35056;SDS011;21241;51.828;19.574;2023-02-28T16:28:08;29.90;;;27.10;;
35056;SDS011;21241;51.828;19.574;2023-02-28T16:30:45;30.80;;;28.20;;
35056;SDS011;21241;51.828;19.574;2023-02-28T16:33:13;31.90;;;29.10;;
35056;SDS011;21241;51.828;19.574;2023-02-28T16:35:40;31.80;;;29.00;;
35056;SDS011;21241;51.828;19.574;2023-02-28T16:38:08;36.50;;;33.30;;
35056;SDS011;21241;51.828;19.574;2023-02-28T16:40:36;39.40;;;36.00;;
35056;SDS011;21241;51.828;19.574;2023-02-28T16:43:05;44.10;;;40.30;;